Angostura, New Mexico
Current Conditions -  °F | °C
As of 8:35 PM on Friday 24 Oct 2014 (Local Time) from KSKX Reporting Station
Clear Clear  
Wind Chill: 10°   Ceiling: Unl
Heat Index: 10°   Visibility: 10mi
Dew Point: -7°   Wind: 9mph
Humidity: 30%   Direction: 100°E
Pressure: 30.37"   Gusts: NA
Location:  36.1892°N, 105.688°W
Report Text: KSKX 250235Z AUTO 10008KT 10SM CLR 10/M07 A3037 RMK AO1
Loading
Personal Weather Stations






























Interactive Weather Map
Tropical Storm Tracking
New forecast layout! Learn more

10-Day Weather Forecast

Advertisements
Track Severe Weather on mobile